sensor_id;sensor_type;location;lat;lon;timestamp;pressure;altitude;pressure_sealevel;temperature;humidity
45763;BME280;37512;52.408;13.356;2023-04-29T00:30:43;100431.91;;;11.13;100.00
45763;BME280;37512;52.408;13.356;2023-04-29T00:34:45;100446.88;;;10.78;100.00
45763;BME280;37512;52.408;13.356;2023-04-29T00:38:46;100425.84;;;10.77;100.00
45763;BME280;37512;52.408;13.356;2023-04-29T00:42:48;100436.03;;;10.96;100.00
45763;BME280;37512;52.408;13.356;2023-04-29T00:46:49;100435.00;;;11.07;100.00
45763;BME280;37512;52.408;13.356;2023-04-29T00:50:51;100435.00;;;11.07;100.00
45763;BME280;37512;52.408;13.356;2023-04-29T00:54:53;100440.66;;;11.15;100.00
45763;BME280;37512;52.408;13.356;2023-04-29T00:58:54;100444.72;;;11.21;100.00
45763;BME280;37512;52.408;13.356;2023-04-29T01:02:57;100442.38;;;11.23;100.00
45763;BME280;37512;52.408;13.356;2023-04-29T01:11:23;100444.56;;;11.10;100.00
45763;BME280;37512;52.408;13.356;2023-04-29T01:15:38;100434.72;;;10.86;100.00
45763;BME280;37512;52.408;13.356;2023-04-29T01:19:45;100432.59;;;10.53;100.00
45763;BME280;37512;52.408;13.356;2023-04-29T01:23:48;100427.72;;;10.46;100.00
45763;BME280;37512;52.408;13.356;2023-04-29T01:32:05;100445.69;;;10.52;100.00
45763;BME280;37512;52.408;13.356;2023-04-29T01:40:37;100440.66;;;10.61;100.00
45763;BME280;37512;52.408;13.356;2023-04-29T01:44:43;100453.13;;;10.48;100.00
45763;BME280;37512;52.408;13.356;2023-04-29T01:48:46;100438.22;;;10.56;100.00
45763;BME280;37512;52.408;13.356;2023-04-29T01:52:48;100434.03;;;10.43;100.00
45763;BME280;37512;52.408;13.356;2023-04-29T01:56:49;100437.97;;;10.42;100.00
45763;BME280;37512;52.408;13.356;2023-04-29T02:00:52;100425.88;;;10.31;100.00
45763;BME280;37512;52.408;13.356;2023-04-29T02:04:54;100435.81;;;9.89;100.00
45763;BME280;37512;52.408;13.356;2023-04-29T02:08:59;100439.84;;;9.72;100.00
45763;BME280;37512;52.408;13.356;2023-04-29T02:13:00;100441.69;;;10.07;100.00
45763;BME280;37512;52.408;13.356;2023-04-29T02:17:02;100442.31;;;10.20;100.00
45763;BME280;37512;52.408;13.356;2023-04-29T02:21:04;100439.16;;;10.21;100.00
45763;BME280;37512;52.408;13.356;2023-04-29T02:25:06;100438.22;;;10.33;100.00
45763;BME280;37512;52.408;13.356;2023-04-29T02:29:08;100435.13;;;10.15;100.00
45763;BME280;37512;52.408;13.356;2023-04-29T02:33:10;100430.59;;;10.07;100.00
45763;BME280;37512;52.408;13.356;2023-04-29T02:37:11;100433.13;;;10.16;100.00
45763;BME280;37512;52.408;13.356;2023-04-29T02:41:16;100437.91;;;9.96;100.00
45763;BME280;37512;52.408;13.356;2023-04-29T02:45:18;100436.00;;;10.00;100.00
45763;BME280;37512;52.408;13.356;2023-04-29T02:49:19;100441.00;;;9.91;100.00
45763;BME280;37512;52.408;13.356;2023-04-29T02:53:21;100436.03;;;9.80;100.00
45763;BME280;37512;52.408;13.356;2023-04-29T02:57:23;100433.59;;;9.98;100.00
45763;BME280;37512;52.408;13.356;2023-04-29T03:01:24;100433.41;;;9.88;100.00
45763;BME280;37512;52.408;13.356;2023-04-29T03:05:26;100433.59;;;9.98;100.00
45763;BME280;37512;52.408;13.356;2023-04-29T03:09:28;100432.59;;;9.87;100.00
45763;BME280;37512;52.408;13.356;2023-04-29T03:13:29;100431.88;;;9.90;100.00
45763;BME280;37512;52.408;13.356;2023-04-29T03:17:31;100435.19;;;9.76;100.00
45763;BME280;37512;52.408;13.356;2023-04-29T03:21:33;100428.59;;;9.84;100.00
45763;BME280;37512;52.408;13.356;2023-04-29T03:25:34;100431.03;;;10.09;100.00
45763;BME280;37512;52.408;13.356;2023-04-29T03:29:37;100426.41;;;10.17;100.00
45763;BME280;37512;52.408;13.356;2023-04-29T03:33:38;100430.47;;;10.00;100.00
45763;BME280;37512;52.408;13.356;2023-04-29T03:37:40;100423.69;;;9.97;100.00
45763;BME280;37512;52.408;13.356;2023-04-29T03:41:46;100425.16;;;9.91;100.00
45763;BME280;37512;52.408;13.356;2023-04-29T03:45:47;100424.25;;;10.07;100.00
45763;BME280;37512;52.408;13.356;2023-04-29T03:49:49;100423.72;;;10.20;100.00
45763;BME280;37512;52.408;13.356;2023-04-29T03:53:53;100424.41;;;10.37;100.00
45763;BME280;37512;52.408;13.356;2023-04-29T03:57:54;100427.72;;;10.23;100.00
45763;BME280;37512;52.408;13.356;2023-04-29T04:01:56;100430.00;;;10.17;100.00
45763;BME280;37512;52.408;13.356;2023-04-29T04:05:58;100431.50;;;10.34;100.00
45763;BME280;37512;52.408;13.356;2023-04-29T04:10:00;100437.69;;;10.04;100.00
45763;BME280;37512;52.408;13.356;2023-04-29T04:14:01;100439.03;;;10.14;100.00
45763;BME280;37512;52.408;13.356;2023-04-29T04:18:03;100448.59;;;10.17;100.00
45763;BME280;37512;52.408;13.356;2023-04-29T04:22:04;100448.06;;;10.31;100.00
45763;BME280;37512;52.408;13.356;2023-04-29T04:26:06;100454.22;;;10.20;100.00
45763;BME280;37512;52.408;13.356;2023-04-29T04:30:08;100445.72;;;10.33;100.00
45763;BME280;37512;52.408;13.356;2023-04-29T04:34:09;100449.44;;;10.40;100.00
45763;BME280;37512;52.408;13.356;2023-04-29T04:38:11;100450.56;;;10.36;100.00
45763;BME280;37512;52.408;13.356;2023-04-29T04:42:12;100451.28;;;10.33;100.00
45763;BME280;37512;52.408;13.356;2023-04-29T04:46:15;100457.41;;;10.22;100.00
45763;BME280;37512;52.408;13.356;2023-04-29T04:50:18;100454.50;;;10.35;100.00
45763;BME280;37512;52.408;13.356;2023-04-29T04:54:20;100449.69;;;10.32;100.00
45763;BME280;37512;52.408;13.356;2023-04-29T04:58:21;100466.50;;;10.65;100.00
45763;BME280;37512;52.408;13.356;2023-04-29T05:02:23;100458.06;;;10.58;100.00
45763;BME280;37512;52.408;13.356;2023-04-29T05:06:25;100455.03;;;10.44;100.00
45763;BME280;37512;52.408;13.356;2023-04-29T05:10:26;100456.59;;;10.41;100.00
45763;BME280;37512;52.408;13.356;2023-04-29T05:14:28;100463.19;;;10.33;100.00
45763;BME280;37512;52.408;13.356;2023-04-29T05:18:29;100465.03;;;10.49;100.00
45763;BME280;37512;52.408;13.356;2023-04-29T05:22:31;100470.09;;;10.23;100.00
45763;BME280;37512;52.408;13.356;2023-04-29T05:26:32;100474.72;;;10.58;100.00
45763;BME280;37512;52.408;13.356;2023-04-29T05:30:34;100470.53;;;10.45;100.00
45763;BME280;37512;52.408;13.356;2023-04-29T05:34:35;100478.19;;;10.52;100.00
45763;BME280;37512;52.408;13.356;2023-04-29T05:38:37;100484.53;;;10.29;100.00
45763;BME280;37512;52.408;13.356;2023-04-29T05:42:39;100474.91;;;10.46;100.00
45763;BME280;37512;52.408;13.356;2023-04-29T05:46:40;100480.06;;;10.71;100.00
45763;BME280;37512;52.408;13.356;2023-04-29T05:50:42;100481.13;;;10.62;100.00
45763;BME280;37512;52.408;13.356;2023-04-29T05:54:44;100484.63;;;10.82;100.00
45763;BME280;37512;52.408;13.356;2023-04-29T05:58:45;100484.00;;;10.70;100.00
45763;BME280;37512;52.408;13.356;2023-04-29T06:02:47;100479.13;;;10.86;100.00
45763;BME280;37512;52.408;13.356;2023-04-29T06:06:59;100494.25;;;10.88;100.00
45763;BME280;37512;52.408;13.356;2023-04-29T06:11:00;100489.41;;;11.08;100.00
45763;BME280;37512;52.408;13.356;2023-04-29T06:15:04;100497.34;;;11.10;100.00
45763;BME280;37512;52.408;13.356;2023-04-29T06:19:06;100494.81;;;11.01;100.00
45763;BME280;37512;52.408;13.356;2023-04-29T06:23:07;100493.81;;;11.13;100.00
45763;BME280;37512;52.408;13.356;2023-04-29T06:27:09;100501.94;;;11.25;100.00
45763;BME280;37512;52.408;13.356;2023-04-29T06:31:13;100500.38;;;11.28;100.00
45763;BME280;37512;52.408;13.356;2023-04-29T06:35:14;100503.25;;;11.35;100.00
45763;BME280;37512;52.408;13.356;2023-04-29T06:39:16;100502.00;;;11.29;100.00
45763;BME280;37512;52.408;13.356;2023-04-29T06:43:17;100520.41;;;11.41;100.00
45763;BME280;37512;52.408;13.356;2023-04-29T06:47:19;100515.88;;;11.29;100.00
45763;BME280;37512;52.408;13.356;2023-04-29T06:51:20;100521.63;;;11.17;100.00
45763;BME280;37512;52.408;13.356;2023-04-29T06:55:22;100520.56;;;10.98;100.00
45763;BME280;37512;52.408;13.356;2023-04-29T06:59:23;100532.00;;;11.20;100.00
45763;BME280;37512;52.408;13.356;2023-04-29T07:03:25;100529.97;;;11.17;100.00
45763;BME280;37512;52.408;13.356;2023-04-29T07:07:26;100536.97;;;11.07;100.00
45763;BME280;37512;52.408;13.356;2023-04-29T07:11:28;100545.19;;;11.00;100.00
45763;BME280;37512;52.408;13.356;2023-04-29T07:15:33;100542.22;;;11.12;100.00
45763;BME280;37512;52.408;13.356;2023-04-29T07:19:34;100551.19;;;11.02;100.00
45763;BME280;37512;52.408;13.356;2023-04-29T07:23:36;100549.63;;;11.04;100.00
45763;BME280;37512;52.408;13.356;2023-04-29T07:27:37;100554.94;;;10.90;100.00
45763;BME280;37512;52.408;13.356;2023-04-29T07:31:39;100554.47;;;10.84;100.00
45763;BME280;37512;52.408;13.356;2023-04-29T07:35:40;100560.22;;;10.72;100.00
45763;BME280;37512;52.408;13.356;2023-04-29T07:39:43;100564.22;;;10.75;100.00
45763;BME280;37512;52.408;13.356;2023-04-29T07:43:44;100571.31;;;10.72;100.00
45763;BME280;37512;52.408;13.356;2023-04-29T07:47:46;100577.22;;;10.94;100.00
45763;BME280;37512;52.408;13.356;2023-04-29T07:51:49;100576.19;;;10.79;100.00
45763;BME280;37512;52.408;13.356;2023-04-29T07:55:50;100588.53;;;10.81;100.00
45763;BME280;37512;52.408;13.356;2023-04-29T07:59:52;100590.91;;;10.83;100.00
45763;BME280;37512;52.408;13.356;2023-04-29T08:03:54;100602.41;;;10.81;100.00
45763;BME280;37512;52.408;13.356;2023-04-29T08:07:56;100612.09;;;10.49;100.00
45763;BME280;37512;52.408;13.356;2023-04-29T08:11:58;100618.84;;;10.71;100.00
45763;BME280;37512;52.408;13.356;2023-04-29T08:16:00;100631.84;;;10.66;100.00
45763;BME280;37512;52.408;13.356;2023-04-29T08:20:02;100637.88;;;10.49;100.00
45763;BME280;37512;52.408;13.356;2023-04-29T08:24:03;100634.91;;;10.81;100.00
45763;BME280;37512;52.408;13.356;2023-04-29T08:28:06;100650.31;;;10.78;100.00
45763;BME280;37512;52.408;13.356;2023-04-29T08:32:07;100653.03;;;10.75;100.00
45763;BME280;37512;52.408;13.356;2023-04-29T08:36:09;100661.25;;;10.67;100.00
45763;BME280;37512;52.408;13.356;2023-04-29T08:40:12;100675.34;;;10.23;100.00
45763;BME280;37512;52.408;13.356;2023-04-29T08:44:14;100687.16;;;10.36;100.00
45763;BME280;37512;52.408;13.356;2023-04-29T08:48:17;100683.88;;;10.50;100.00
45763;BME280;37512;52.408;13.356;2023-04-29T08:52:19;100689.88;;;10.52;100.00
45763;BME280;37512;52.408;13.356;2023-04-29T08:56:21;100704.03;;;10.66;100.00
45763;BME280;37512;52.408;13.356;2023-04-29T09:00:23;100705.22;;;10.65;100.00
45763;BME280;37512;52.408;13.356;2023-04-29T09:08:32;100717.97;;;10.51;100.00
45763;BME280;37512;52.408;13.356;2023-04-29T09:12:34;100729.72;;;10.44;100.00
45763;BME280;37512;52.408;13.356;2023-04-29T09:16:36;100727.81;;;10.29;100.00
45763;BME280;37512;52.408;13.356;2023-04-29T09:20:39;100734.78;;;10.22;100.00
45763;BME280;37512;52.408;13.356;2023-04-29T09:24:40;100737.28;;;10.27;100.00
45763;BME280;37512;52.408;13.356;2023-04-29T09:28:43;100739.97;;;10.59;100.00
45763;BME280;37512;52.408;13.356;2023-04-29T09:32:56;100745.94;;;10.42;100.00
45763;BME280;37512;52.408;13.356;2023-04-29T09:37:22;100767.19;;;10.18;100.00
45763;BME280;37512;52.408;13.356;2023-04-29T09:41:24;100767.69;;;10.24;100.00
45763;BME280;37512;52.408;13.356;2023-04-29T09:49:41;100790.34;;;10.10;100.00
45763;BME280;37512;52.408;13.356;2023-04-29T09:53:44;100788.72;;;10.25;100.00
45763;BME280;37512;52.408;13.356;2023-04-29T09:57:46;100795.81;;;10.22;100.00
45763;BME280;37512;52.408;13.356;2023-04-29T10:01:49;100804.94;;;10.07;100.00
45763;BME280;37512;52.408;13.356;2023-04-29T10:05:51;100818.00;;;10.22;100.00
45763;BME280;37512;52.408;13.356;2023-04-29T10:09:53;100817.09;;;10.18;100.00
45763;BME280;37512;52.408;13.356;2023-04-29T10:13:56;100818.00;;;10.22;100.00
45763;BME280;37512;52.408;13.356;2023-04-29T10:18:05;100825.78;;;10.33;100.00
45763;BME280;37512;52.408;13.356;2023-04-29T10:22:20;100828.19;;;10.50;100.00
45763;BME280;37512;52.408;13.356;2023-04-29T10:26:26;100828.00;;;10.27;100.00
45763;BME280;37512;52.408;13.356;2023-04-29T10:30:29;100828.59;;;10.68;100.00
45763;BME280;37512;52.408;13.356;2023-04-29T10:34:32;100832.16;;;10.17;100.00
45763;BME280;37512;52.408;13.356;2023-04-29T10:38:39;100843.78;;;10.39;100.00
45763;BME280;37512;52.408;13.356;2023-04-29T10:42:46;100842.81;;;10.66;100.00
45763;BME280;37512;52.408;13.356;2023-04-29T10:46:48;100856.22;;;9.97;100.00
45763;BME280;37512;52.408;13.356;2023-04-29T10:55:11;100864.88;;;10.27;100.00
45763;BME280;37512;52.408;13.356;2023-04-29T10:59:14;100856.72;;;10.19;100.00
45763;BME280;37512;52.408;13.356;2023-04-29T11:03:55;100869.53;;;10.23;100.00
45763;BME280;37512;52.408;13.356;2023-04-29T11:12:11;100872.91;;;10.64;100.00
45763;BME280;37512;52.408;13.356;2023-04-29T11:16:13;100864.13;;;10.62;100.00
45763;BME280;37512;52.408;13.356;2023-04-29T11:20:15;100864.47;;;10.77;100.00
45763;BME280;37512;52.408;13.356;2023-04-29T11:24:17;100870.47;;;10.79;100.00
45763;BME280;37512;52.408;13.356;2023-04-29T11:28:18;100884.81;;;11.00;100.00
45763;BME280;37512;52.408;13.356;2023-04-29T11:32:21;100880.59;;;11.06;100.00
45763;BME280;37512;52.408;13.356;2023-04-29T11:36:23;100887.44;;;11.13;100.00
45763;BME280;37512;52.408;13.356;2023-04-29T11:40:25;100890.78;;;11.61;100.00
45763;BME280;37512;52.408;13.356;2023-04-29T11:44:27;100895.00;;;11.74;100.00
45763;BME280;37512;52.408;13.356;2023-04-29T11:48:28;100894.28;;;11.77;100.00
45763;BME280;37512;52.408;13.356;2023-04-29T11:52:31;100907.00;;;12.21;100.00
45763;BME280;37512;52.408;13.356;2023-04-29T11:56:32;100903.13;;;11.83;100.00
45763;BME280;37512;52.408;13.356;2023-04-29T12:00:34;100906.97;;;11.16;100.00
45763;BME280;37512;52.408;13.356;2023-04-29T12:04:46;100919.75;;;11.60;100.00
45763;BME280;37512;52.408;13.356;2023-04-29T12:08:49;100921.66;;;11.75;100.00
45763;BME280;37512;52.408;13.356;2023-04-29T12:12:51;100919.19;;;11.70;100.00
45763;BME280;37512;52.408;13.356;2023-04-29T12:16:53;100920.28;;;12.08;100.00
45763;BME280;37512;52.408;13.356;2023-04-29T12:20:55;100933.41;;;12.07;100.00
45763;BME280;37512;52.408;13.356;2023-04-29T12:24:56;100922.84;;;12.17;100.00
45763;BME280;37512;52.408;13.356;2023-04-29T12:28:58;100929.06;;;12.10;100.00
45763;BME280;37512;52.408;13.356;2023-04-29T12:33:01;100929.38;;;12.28;100.00
45763;BME280;37512;52.408;13.356;2023-04-29T12:37:02;100936.34;;;11.76;100.00
45763;BME280;37512;52.408;13.356;2023-04-29T12:41:04;100941.41;;;11.89;100.00
45763;BME280;37512;52.408;13.356;2023-04-29T12:45:08;100950.03;;;11.84;100.00
45763;BME280;37512;52.408;13.356;2023-04-29T12:49:10;100946.97;;;11.89;100.00
45763;BME280;37512;52.408;13.356;2023-04-29T12:53:11;100940.56;;;12.08;100.00
45763;BME280;37512;52.408;13.356;2023-04-29T12:57:13;100945.47;;;12.15;100.00
45763;BME280;37512;52.408;13.356;2023-04-29T13:01:15;100944.03;;;12.48;100.00
45763;BME280;37512;52.408;13.356;2023-04-29T13:05:19;100949.00;;;12.85;100.00
45763;BME280;37512;52.408;13.356;2023-04-29T13:09:20;100949.44;;;13.17;100.00
45763;BME280;37512;52.408;13.356;2023-04-29T13:13:22;100946.34;;;13.22;100.00
45763;BME280;37512;52.408;13.356;2023-04-29T13:17:25;100956.75;;;13.55;100.00
45763;BME280;37512;52.408;13.356;2023-04-29T13:21:27;100951.66;;;13.98;100.00
45763;BME280;37512;52.408;13.356;2023-04-29T13:25:28;100965.06;;;14.23;100.00
45763;BME280;37512;52.408;13.356;2023-04-29T13:29:30;100965.28;;;14.48;100.00
45763;BME280;37512;52.408;13.356;2023-04-29T13:33:31;100971.38;;;13.79;100.00
45763;BME280;37512;52.408;13.356;2023-04-29T13:37:33;100961.13;;;13.90;100.00
45763;BME280;37512;52.408;13.356;2023-04-29T13:41:35;100971.16;;;13.95;100.00
45763;BME280;37512;52.408;13.356;2023-04-29T13:45:36;100973.78;;;14.18;100.00
45763;BME280;37512;52.408;13.356;2023-04-29T13:49:44;100977.66;;;13.69;100.00
45763;BME280;37512;52.408;13.356;2023-04-29T13:54:05;100982.00;;;14.04;100.00
45763;BME280;37512;52.408;13.356;2023-04-29T13:58:10;100980.44;;;14.92;100.00
45763;BME280;37512;52.408;13.356;2023-04-29T14:02:14;100981.94;;;15.41;100.00
45763;BME280;37512;52.408;13.356;2023-04-29T14:06:26;100992.59;;;15.21;100.00
45763;BME280;37512;52.408;13.356;2023-04-29T14:10:28;100988.38;;;14.86;100.00
45763;BME280;37512;52.408;13.356;2023-04-29T14:14:30;100998.56;;;14.64;100.00
45763;BME280;37512;52.408;13.356;2023-04-29T14:18:31;101003.94;;;14.42;100.00
45763;BME280;37512;52.408;13.356;2023-04-29T14:22:33;101003.75;;;14.21;100.00
45763;BME280;37512;52.408;13.356;2023-04-29T14:26:34;101005.84;;;13.94;100.00
45763;BME280;37512;52.408;13.356;2023-04-29T14:30:37;101011.06;;;13.99;100.00
45763;BME280;37512;52.408;13.356;2023-04-29T14:34:38;101009.06;;;13.99;100.00
45763;BME280;37512;52.408;13.356;2023-04-29T14:38:40;101014.47;;;14.19;100.00
45763;BME280;37512;52.408;13.356;2023-04-29T14:42:41;101013.91;;;14.43;100.00
45763;BME280;37512;52.408;13.356;2023-04-29T14:46:43;101014.84;;;14.55;100.00
45763;BME280;37512;52.408;13.356;2023-04-29T14:50:44;101023.41;;;16.12;92.61
45763;BME280;37512;52.408;13.356;2023-04-29T14:54:46;101022.31;;;16.74;83.03
45763;BME280;37512;52.408;13.356;2023-04-29T14:58:47;101036.09;;;18.07;74.54
45763;BME280;37512;52.408;13.356;2023-04-29T15:02:49;101034.69;;;17.30;70.73
45763;BME280;37512;52.408;13.356;2023-04-29T15:06:51;101031.03;;;17.59;71.00
45763;BME280;37512;52.408;13.356;2023-04-29T15:10:52;101039.41;;;17.69;68.44
45763;BME280;37512;52.408;13.356;2023-04-29T15:14:54;101041.91;;;16.45;76.15
45763;BME280;37512;52.408;13.356;2023-04-29T15:18:55;101033.56;;;15.61;78.28
45763;BME280;37512;52.408;13.356;2023-04-29T15:22:57;101031.72;;;15.87;82.74
45763;BME280;37512;52.408;13.356;2023-04-29T15:26:58;101044.13;;;15.86;82.73
45763;BME280;37512;52.408;13.356;2023-04-29T15:31:00;101039.25;;;15.76;85.72
45763;BME280;37512;52.408;13.356;2023-04-29T15:35:04;101047.63;;;15.10;91.92
45763;BME280;37512;52.408;13.356;2023-04-29T15:39:06;101042.31;;;14.94;93.12
45763;BME280;37512;52.408;13.356;2023-04-29T15:43:11;101048.00;;;15.01;93.24
45763;BME280;37512;52.408;13.356;2023-04-29T15:47:14;101047.03;;;14.45;91.81
45763;BME280;37512;52.408;13.356;2023-04-29T15:51:15;101060.31;;;14.18;94.17
45763;BME280;37512;52.408;13.356;2023-04-29T15:55:17;101065.91;;;14.18;98.24
45763;BME280;37512;52.408;13.356;2023-04-29T15:59:19;101063.72;;;13.70;100.00
45763;BME280;37512;52.408;13.356;2023-04-29T16:03:20;101071.88;;;13.86;100.00
45763;BME280;37512;52.408;13.356;2023-04-29T16:07:22;101080.31;;;13.59;100.00
45763;BME280;37512;52.408;13.356;2023-04-29T16:11:23;101079.78;;;13.50;100.00
45763;BME280;37512;52.408;13.356;2023-04-29T16:15:25;101080.50;;;13.21;100.00
45763;BME280;37512;52.408;13.356;2023-04-29T16:19:27;101092.38;;;13.41;100.00
45763;BME280;37512;52.408;13.356;2023-04-29T16:23:29;101086.59;;;13.53;100.00
45763;BME280;37512;52.408;13.356;2023-04-29T16:27:30;101082.34;;;13.36;100.00
45763;BME280;37512;52.408;13.356;2023-04-29T16:31:35;101099.72;;;13.52;100.00
45763;BME280;37512;52.408;13.356;2023-04-29T16:35:36;101091.84;;;13.31;100.00
45763;BME280;37512;52.408;13.356;2023-04-29T16:39:38;101103.16;;;13.69;100.00
45763;BME280;37512;52.408;13.356;2023-04-29T16:43:44;101098.81;;;13.71;100.00
45763;BME280;37512;52.408;13.356;2023-04-29T16:47:46;101100.56;;;13.83;100.00
45763;BME280;37512;52.408;13.356;2023-04-29T16:51:47;101096.88;;;14.06;100.00
45763;BME280;37512;52.408;13.356;2023-04-29T16:55:49;101104.38;;;14.69;100.00
45763;BME280;37512;52.408;13.356;2023-04-29T16:59:51;101102.75;;;14.68;100.00
45763;BME280;37512;52.408;13.356;2023-04-29T17:03:53;101104.88;;;14.78;94.24
45763;BME280;37512;52.408;13.356;2023-04-29T17:07:55;101115.03;;;13.92;97.27
45763;BME280;37512;52.408;13.356;2023-04-29T17:11:57;101117.94;;;15.08;89.35
45763;BME280;37512;52.408;13.356;2023-04-29T17:15:58;101122.31;;;15.64;78.46
45763;BME280;37512;52.408;13.356;2023-04-29T17:20:00;101123.34;;;15.97;65.89
45763;BME280;37512;52.408;13.356;2023-04-29T17:24:01;101134.00;;;16.76;60.76
45763;BME280;37512;52.408;13.356;2023-04-29T17:28:03;101142.72;;;16.31;58.20
45763;BME280;37512;52.408;13.356;2023-04-29T17:32:06;101144.06;;;16.87;54.12
45763;BME280;37512;52.408;13.356;2023-04-29T17:36:11;101144.59;;;16.09;55.22
45763;BME280;37512;52.408;13.356;2023-04-29T17:40:12;101149.94;;;15.18;54.76
45763;BME280;37512;52.408;13.356;2023-04-29T17:44:14;101148.38;;;14.79;60.08
45763;BME280;37512;52.408;13.356;2023-04-29T17:48:16;101155.19;;;14.48;63.13
45763;BME280;37512;52.408;13.356;2023-04-29T17:52:19;101162.97;;;14.32;63.98
45763;BME280;37512;52.408;13.356;2023-04-29T17:56:23;101166.84;;;13.93;65.43
45763;BME280;37512;52.408;13.356;2023-04-29T18:00:26;101164.81;;;13.64;64.81
45763;BME280;37512;52.408;13.356;2023-04-29T18:04:27;101167.25;;;13.65;66.85
45763;BME280;37512;52.408;13.356;2023-04-29T18:08:29;101162.06;;;13.41;67.37
45763;BME280;37512;52.408;13.356;2023-04-29T18:12:30;101176.88;;;13.22;67.43
45763;BME280;37512;52.408;13.356;2023-04-29T18:16:34;101179.84;;;13.09;66.66
45763;BME280;37512;52.408;13.356;2023-04-29T18:20:36;101186.78;;;12.96;70.52
45763;BME280;37512;52.408;13.356;2023-04-29T18:24:37;101205.72;;;12.67;69.77
45763;BME280;37512;52.408;13.356;2023-04-29T18:28:39;101201.78;;;12.68;72.88
45763;BME280;37512;52.408;13.356;2023-04-29T18:32:40;101209.97;;;12.61;74.15
45763;BME280;37512;52.408;13.356;2023-04-29T18:36:42;101208.63;;;12.74;73.76
45763;BME280;37512;52.408;13.356;2023-04-29T18:40:43;101209.97;;;12.61;75.13
45763;BME280;37512;52.408;13.356;2023-04-29T18:44:44;101209.09;;;12.57;75.35
45763;BME280;37512;52.408;13.356;2023-04-29T18:48:48;101224.63;;;12.39;76.32
45763;BME280;37512;52.408;13.356;2023-04-29T18:52:49;101224.16;;;12.17;76.50
45763;BME280;37512;52.408;13.356;2023-04-29T18:56:51;101239.31;;;12.20;76.48
45763;BME280;37512;52.408;13.356;2023-04-29T19:00:53;101246.94;;;12.23;77.38
45763;BME280;37512;52.408;13.356;2023-04-29T19:04:55;101254.44;;;12.03;76.99
45763;BME280;37512;52.408;13.356;2023-04-29T19:08:57;101251.31;;;12.04;77.17
45763;BME280;37512;52.408;13.356;2023-04-29T19:12:58;101255.91;;;12.32;75.26
45763;BME280;37512;52.408;13.356;2023-04-29T19:17:00;101266.75;;;12.37;79.65
45763;BME280;37512;52.408;13.356;2023-04-29T19:21:01;101271.41;;;12.33;76.11
45763;BME280;37512;52.408;13.356;2023-04-29T19:25:03;101268.66;;;12.17;78.33
45763;BME280;37512;52.408;13.356;2023-04-29T19:29:05;101278.91;;;12.13;78.89
45763;BME280;37512;52.408;13.356;2023-04-29T19:33:07;101275.66;;;12.27;80.59
45763;BME280;37512;52.408;13.356;2023-04-29T19:37:09;101278.44;;;12.27;79.35
45763;BME280;37512;52.408;13.356;2023-04-29T19:41:10;101294.00;;;12.12;78.51
45763;BME280;37512;52.408;13.356;2023-04-29T19:45:12;101281.59;;;12.25;82.33
45763;BME280;37512;52.408;13.356;2023-04-29T19:49:13;101294.38;;;11.95;82.22
45763;BME280;37512;52.408;13.356;2023-04-29T19:53:15;101295.34;;;11.86;81.37
45763;BME280;37512;52.408;13.356;2023-04-29T19:57:17;101297.13;;;11.79;82.80
45763;BME280;37512;52.408;13.356;2023-04-29T20:01:18;101294.91;;;11.52;83.10
45763;BME280;37512;52.408;13.356;2023-04-29T20:05:20;101303.69;;;11.55;85.03
45763;BME280;37512;52.408;13.356;2023-04-29T20:09:21;101313.00;;;11.46;86.78
45763;BME280;37512;52.408;13.356;2023-04-29T20:13:23;101309.75;;;11.44;87.08
45763;BME280;37512;52.408;13.356;2023-04-29T20:17:24;101317.91;;;11.37;90.86
45763;BME280;37512;52.408;13.356;2023-04-29T20:21:26;101318.66;;;11.22;93.48
45763;BME280;37512;52.408;13.356;2023-04-29T20:25:27;101319.16;;;10.96;91.76
45763;BME280;37512;52.408;13.356;2023-04-29T20:29:29;101325.00;;;11.06;95.90
45763;BME280;37512;52.408;13.356;2023-04-29T20:33:30;101330.50;;;10.91;100.00
45763;BME280;37512;52.408;13.356;2023-04-29T20:37:32;101330.66;;;10.82;100.00
45763;BME280;37512;52.408;13.356;2023-04-29T20:41:34;101334.28;;;10.58;99.47
45763;BME280;37512;52.408;13.356;2023-04-29T20:45:36;101339.38;;;10.68;100.00
45763;BME280;37512;52.408;13.356;2023-04-29T20:49:38;101337.63;;;10.63;100.00
45763;BME280;37512;52.408;13.356;2023-04-29T20:53:39;101347.34;;;10.57;100.00
45763;BME280;37512;52.408;13.356;2023-04-29T20:57:41;101345.50;;;10.61;100.00
45763;BME280;37512;52.408;13.356;2023-04-29T21:01:42;101351.16;;;10.65;100.00
45763;BME280;37512;52.408;13.356;2023-04-29T21:05:45;101345.78;;;10.32;100.00
45763;BME280;37512;52.408;13.356;2023-04-29T21:09:47;101349.69;;;10.43;100.00
45763;BME280;37512;52.408;13.356;2023-04-29T21:13:49;101352.69;;;10.50;100.00
45763;BME280;37512;52.408;13.356;2023-04-29T21:17:51;101363.56;;;10.55;100.00
45763;BME280;37512;52.408;13.356;2023-04-29T21:21:53;101369.00;;;10.52;100.00
45763;BME280;37512;52.408;13.356;2023-04-29T21:25:54;101368.97;;;10.64;100.00
45763;BME280;37512;52.408;13.356;2023-04-29T21:29:56;101370.06;;;10.47;100.00
45763;BME280;37512;52.408;13.356;2023-04-29T21:33:57;101379.31;;;10.39;100.00
45763;BME280;37512;52.408;13.356;2023-04-29T21:38:00;101381.38;;;10.42;100.00